Snow/Ice From: 24-10-2018 05:00 Until: 09:00 warning for: Snow/Ice Level: Yellow info button
suomi:
Liikennesää: Ajokeli muuttuu huonoksi aamulla tienpintojen jäätymisen vuoksi.

svenska:
Trafikvädret: Väglaget blir dåligt på morgonen p.g.a. tillfrysning av vägytor.

english:
Traffic weather warning: Bad road conditions are expected in the morning because of ice-covered roads. 


Thunder radar more information blitzortung!


Löydät sääaseman tiedot myös:

European Weather Network

Finland Weather Exchange

Weather Underground

AWEKAS



Weather Underground säähistoriasivu

Päivittäin yhteenveto Helmikuu 28, 2017 Yksiköt:  Metriset    Englantilaiset   Molemmat
« Edellinen Päivä
Seuraava Päivä »
Päivittäin Viikoittain Kuukausittain Vuosittain Mukautettu
  Korkea: Matala: Keskiarvo:
Lämpötila: -17.8 °C -1.4 °C 1.3 °C
Kastepiste: -17.8 °C -2.1 °C 0.8 °C
Kosteus: Humidity % 95 % 96 %
Tuulen nopeus: 0 km/h 0 km/h 1 km/h
Tuulenpuuska: 0 km/h - -
Tuuli:- - SSE
Ilmanpaine: 0 hPa 986.3 hPa -
Sade: 0 mm    
Historical Graphs
 
 
Taulukkotiedot Helmikuu 28, 2017
Aika Lämpötila Kastepiste Ilmanpaine Tuuli Tuulen nopeus Tuulenpuuska Kosteus Sademäärä (tunneittain)
-17.8 °C -17.8 °C 0 hPa Calm     Humidity % 0 mm
00:00 -1.4 °C -2.1 °C 996.5 hPa South 3.2 km/h 11.3 km/h 95 % 0 mm
00:15 -1.4 °C -2.1 °C 996.5 hPa SSW 3.2 km/h 9.7 km/h 95 % 0 mm
00:30 -1.3 °C -2 °C 996.2 hPa South 3.2 km/h 11.3 km/h 95 % 0 mm
00:45 -1.2 °C -1.9 °C 996.2 hPa South 4.8 km/h 9.7 km/h 95 % 0 mm
01:00 -1.1 °C -1.8 °C 996.2 hPa South 4.8 km/h 12.9 km/h 95 % 0 mm
01:15 -1 °C -1.7 °C 996.2 hPa South 1.6 km/h 9.7 km/h 95 % 0 mm
01:30 -0.8 °C -1.5 °C 996.2 hPa South 1.6 km/h 9.7 km/h 95 % 0 mm
01:45 -0.7 °C -1.4 °C 995.8 hPa South 3.2 km/h 12.9 km/h 95 % 0 mm
02:00 -0.6 °C -1.3 °C 995.8 hPa South 1.6 km/h 9.7 km/h 95 % 0 mm
02:15 -0.5 °C -1.2 °C 995.8 hPa Calm   8 km/h 95 % 0 mm
02:30 -0.4 °C -1.1 °C 995.8 hPa Calm   6.4 km/h 95 % 0 mm
02:45 -0.3 °C -1 °C 995.8 hPa Calm   6.4 km/h 95 % 0 mm
03:00 -0.2 °C -0.8 °C 995.5 hPa South 1.6 km/h 9.7 km/h 96 % 0 mm
03:15 -0.1 °C -0.6 °C 995.5 hPa Calm   8 km/h 96 % 0 mm
03:30 0.1 °C -0.5 °C 995.5 hPa Calm   4.8 km/h 96 % 0 mm
03:45 0.2 °C -0.4 °C 995.5 hPa Calm   8 km/h 96 % 0 mm
04:00 0.3 °C -0.3 °C 995.1 hPa South 1.6 km/h 8 km/h 96 % 0 mm
04:15 0.3 °C -0.2 °C 995.1 hPa Calm   6.4 km/h 96 % 0 mm
04:30 0.4 °C -0.2 °C 994.8 hPa Calm   3.2 km/h 96 % 0 mm
04:45 0.4 °C -0.1 °C 994.8 hPa South 1.6 km/h 8 km/h 96 % 0 mm
05:00 0.4 °C -0.1 °C 994.5 hPa Calm   6.4 km/h 96 % 0 mm
05:15 0.5 °C -0.1 °C 994.5 hPa Calm   6.4 km/h 96 % 0 mm
05:30 0.5 °C -0.1 °C 994.1 hPa Calm   6.4 km/h 96 % 0 mm
05:45 0.5 °C 0.1 °C 994.1 hPa Calm   3.2 km/h 97 % 0 mm
06:00 0.5 °C 0.1 °C 994.1 hPa Calm   9.7 km/h 97 % 0 mm
06:15 0.6 °C 0 °C 993.8 hPa Calm   6.4 km/h 96 % 0 mm
06:30 0.6 °C 0.1 °C 993.8 hPa Calm   3.2 km/h 97 % 0 mm
06:45 0.6 °C 0.1 °C 993.8 hPa Calm   3.2 km/h 97 % 0 mm
07:00 0.6 °C 0.2 °C 993.5 hPa Calm   3.2 km/h 97 % 0 mm
07:15 0.7 °C 0.2 °C 993.5 hPa Calm   1.6 km/h 97 % 0 mm
07:30 0.7 °C 0.2 °C 993.5 hPa Calm   9.7 km/h 97 % 0 mm
07:45 0.7 °C 0.2 °C 993.5 hPa Calm   6.4 km/h 97 % 0 mm
08:00 0.7 °C 0.3 °C 993.1 hPa SSE 1.6 km/h 8 km/h 97 % 0 mm
08:15 0.7 °C 0.2 °C 992.8 hPa Calm   1.6 km/h 97 % 0 mm
08:30 0.8 °C 0.4 °C 993.1 hPa Calm   6.4 km/h 97 % 0 mm
08:45 0.8 °C 0.4 °C 993.1 hPa Calm   8 km/h 97 % 0 mm
09:00 0.9 °C 0.5 °C 992.8 hPa Calm   9.7 km/h 97 % 0 mm
09:15 1 °C 0.6 °C 993.1 hPa SSE 1.6 km/h 9.7 km/h 97 % 0 mm
09:30 1.1 °C 0.7 °C 992.8 hPa Calm   6.4 km/h 97 % 0 mm
09:45 1.2 °C 0.7 °C 992.8 hPa Calm   9.7 km/h 97 % 0 mm
10:00 1.3 °C 0.9 °C 992.8 hPa Calm   9.7 km/h 97 % 0 mm
10:15 1.5 °C 1.1 °C 992.8 hPa SE 1.6 km/h 8 km/h 97 % 0 mm
10:30 1.7 °C 1.2 °C 992.8 hPa South 1.6 km/h 11.3 km/h 97 % 0 mm
10:45 1.8 °C 1.4 °C 992.8 hPa SSE 1.6 km/h 9.7 km/h 97 % 0 mm
11:00 2.1 °C 1.6 °C 992.8 hPa SSE 1.6 km/h 9.7 km/h 97 % 0 mm
11:15 2.2 °C 1.7 °C 992.4 hPa Calm   6.4 km/h 97 % 0 mm
11:30 2.2 °C 1.7 °C 992.4 hPa Calm     97 % 0 mm
11:45 2.1 °C 1.7 °C 992.1 hPa Calm     97 % 0 mm
12:00 2.1 °C 1.6 °C 991.8 hPa Calm   1.6 km/h 97 % 0 mm
12:15 2.2 °C 1.8 °C 991.4 hPa Calm   3.2 km/h 97 % 0 mm
12:30 2.4 °C 2 °C 991.8 hPa ESE 1.6 km/h 6.4 km/h 97 % 0 mm
12:45 2.5 °C 2.1 °C 991.8 hPa Calm   3.2 km/h 97 % 0 mm
13:00 2.7 °C 2.2 °C 991.4 hPa Calm     97 % 0 mm
13:15 2.8 °C 2.4 °C 991.4 hPa Calm   6.4 km/h 97 % 0 mm
13:30 2.8 °C 2.4 °C 991.1 hPa Calm   6.4 km/h 97 % 0 mm
13:45 3.1 °C 2.6 °C 990.7 hPa SSE 1.6 km/h 8 km/h 97 % 0 mm
14:00 3.2 °C 2.7 °C 990.7 hPa Calm   8 km/h 97 % 0 mm
14:15 3.2 °C 2.7 °C 990.7 hPa Calm     97 % 0 mm
14:30 3 °C 2.6 °C 990.4 hPa South 1.6 km/h 8 km/h 97 % 0 mm
14:45 2.9 °C 2.5 °C 990.4 hPa SE 1.6 km/h 11.3 km/h 97 % 0 mm
15:00 2.8 °C 2.4 °C 990.4 hPa SE 1.6 km/h 9.7 km/h 97 % 0 mm
15:15 2.7 °C 2.2 °C 990.4 hPa SE 1.6 km/h 8 km/h 97 % 0 mm
15:30 2.6 °C 2.2 °C 990.1 hPa Calm   8 km/h 97 % 0 mm
15:45 2.5 °C 2.1 °C 990.1 hPa Calm   8 km/h 97 % 0 mm
16:00 2.4 °C 2 °C 989.7 hPa Calm   1.6 km/h 97 % 0 mm
16:15 2.3 °C 1.9 °C 989.7 hPa SE 1.6 km/h 11.3 km/h 97 % 0 mm
16:30 2.3 °C 1.9 °C 989.4 hPa SE 1.6 km/h 12.9 km/h 97 % 0 mm
16:45 2.3 °C 1.9 °C 989.4 hPa Calm   11.3 km/h 97 % 0 mm
17:00 2.3 °C 1.9 °C 989.1 hPa Calm   8 km/h 97 % 0 mm
17:15 2.2 °C 1.8 °C 989.1 hPa Calm   6.4 km/h 97 % 0 mm
17:30 2.2 °C 1.8 °C 989.4 hPa SE 1.6 km/h 6.4 km/h 97 % 0 mm
17:45 2.2 °C 1.8 °C 989.1 hPa Calm   8 km/h 97 % 0 mm
18:00 2.3 °C 1.9 °C 989.1 hPa SSE 1.6 km/h 8 km/h 97 % 0 mm
18:15 2.2 °C 1.7 °C 989.1 hPa Calm   6.4 km/h 97 % 0 mm
18:30 2.3 °C 1.9 °C 988.7 hPa SSE 1.6 km/h 12.9 km/h 97 % 0 mm
18:45 2.3 °C 1.9 °C 988.7 hPa South 1.6 km/h 9.7 km/h 97 % 0 mm
19:00 2.4 °C 2 °C 988.7 hPa SE 1.6 km/h 11.3 km/h 97 % 0 mm
19:15 2.3 °C 1.9 °C 988.4 hPa SSE 1.6 km/h 9.7 km/h 97 % 0 mm
19:30 2.4 °C 2 °C 988.4 hPa SSE 1.6 km/h 11.3 km/h 97 % 0 mm
19:45 2.3 °C 1.9 °C 988 hPa SE 1.6 km/h 8 km/h 97 % 0 mm
20:00 2.4 °C 2 °C 988 hPa SSE 1.6 km/h 9.7 km/h 97 % 0 mm
20:15 2.5 °C 2.1 °C 988 hPa SSE 1.6 km/h 12.9 km/h 97 % 0 mm
20:30 2.5 °C 2.1 °C 987.7 hPa SE 1.6 km/h 8 km/h 97 % 0 mm
20:45 2.5 °C 2.1 °C 987.7 hPa SSE 3.2 km/h 12.9 km/h 97 % 0 mm
21:00 2.6 °C 2.1 °C 987.7 hPa SSE 1.6 km/h 12.9 km/h 97 % 0 mm
21:15 2.6 °C 2.1 °C 987.4 hPa SE 1.6 km/h 12.9 km/h 97 % 0 mm
21:30 2.4 °C 2 °C 987.4 hPa South 1.6 km/h 8 km/h 97 % 0 mm
21:45 2.5 °C 2.1 °C 987.4 hPa Calm   6.4 km/h 97 % 0 mm
22:00 2.4 °C 2 °C 987.4 hPa South 1.6 km/h 8 km/h 97 % 0 mm
22:15 2.6 °C 2.1 °C 987 hPa Calm   8 km/h 97 % 0 mm
22:30 2.6 °C 2.2 °C 987 hPa SE 1.6 km/h 11.3 km/h 97 % 0 mm
22:45 2.6 °C 2.2 °C 987 hPa SSE 1.6 km/h 11.3 km/h 97 % 0 mm
23:00 2.6 °C 2.1 °C 986.7 hPa South 1.6 km/h 8 km/h 97 % 0 mm
23:15 2.7 °C 2.2 °C 986.7 hPa SE 1.6 km/h 9.7 km/h 97 % 0 mm
23:30 2.6 °C 2.2 °C 986.3 hPa Calm   6.4 km/h 97 % 0 mm
23:45 2.5 °C 2.1 °C 986.3 hPa Calm   1.6 km/h 97 % 0 mm
Esan sääasema
Terveisin Weather Underground - 2.75 mb

Alkuperäinen skripti  Jim McMurry - jmcmurry@mwt.net Sovitettu myös templatelle  Wim van der Kuil - Leuven-Template.eu

Laitteet joita käytämme:

Sääasema
Davis VP2

Sääasemaohjelma
Cumulus

Sääaseman tietokone
Asus EeePC

Palveluntarjoaja
Suncomet

Davis VP2

Cumulus

Asus EeePC

Suncomet